createdAt,value
2016-08-24T11:25:12.141Z,10220
2016-08-24T11:26:23.746Z,10660
2016-08-24T11:27:35.342Z,10532
2016-08-24T11:28:46.219Z,10472
2016-08-24T11:29:57.091Z,10456
2016-08-24T11:31:08.676Z,10464
2016-08-24T11:32:19.568Z,10732
2016-08-24T11:33:31.877Z,10848
2016-08-24T11:34:43.497Z,11144
2016-08-24T11:35:55.803Z,11448
2016-08-24T11:37:08.120Z,11628
2016-08-24T11:38:19.751Z,11748
2016-08-24T11:39:32.065Z,11644
2016-08-24T11:40:43.879Z,11616
2016-08-24T11:41:54.090Z,11320
2016-08-24T11:43:06.390Z,11132
2016-08-24T11:44:17.988Z,11080
2016-08-24T11:45:29.566Z,10440
2016-08-24T11:46:41.882Z,10404
2016-08-24T11:47:52.770Z,8292
2016-08-24T11:49:05.089Z,4348
2016-08-24T11:50:15.978Z,4356
2016-08-24T11:51:27.557Z,7896
2016-08-24T11:52:39.170Z,10272
2016-08-24T11:53:50.074Z,10172
2016-08-24T11:55:02.344Z,10124
2016-08-24T11:56:13.224Z,10220
2016-08-24T11:57:24.802Z,10524
2016-08-24T11:58:36.394Z,10848
2016-08-24T11:59:47.991Z,11004
2016-08-24T12:00:59.591Z,11096
2016-08-24T12:02:10.484Z,9864
2016-08-24T12:03:23.006Z,6300
2016-08-24T12:04:34.610Z,11168
2016-08-24T12:05:46.919Z,7504
2016-08-24T12:06:58.523Z,11348
2016-08-24T12:08:10.832Z,11192
2016-08-24T12:09:22.427Z,11096
2016-08-24T12:10:34.020Z,10528
2016-08-24T12:11:46.309Z,10264
2016-08-24T12:12:58.595Z,4672
2016-08-24T12:14:10.163Z,5052
2016-08-24T12:15:22.443Z,10944
2016-08-24T12:16:34.716Z,5388
2016-08-24T12:17:46.283Z,5648
2016-08-24T12:18:58.568Z,10508
2016-08-24T12:20:08.738Z,7640
2016-08-24T12:21:20.310Z,11432
2016-08-24T12:22:32.639Z,11228
2016-08-24T12:23:44.926Z,6728
2016-08-24T12:24:56.513Z,9164
2016-08-24T12:26:06.685Z,5548
2016-08-24T12:27:18.269Z,4884
2016-08-24T12:28:30.578Z,4884
2016-08-24T12:29:42.881Z,5120
2016-08-24T12:30:55.165Z,5028
2016-08-24T12:32:06.746Z,5416
2016-08-24T12:33:18.313Z,7060
2016-08-24T12:34:29.906Z,10492
2016-08-24T12:35:42.201Z,10144
2016-08-24T12:36:54.481Z,5208
2016-08-24T12:38:06.774Z,10952
2016-08-24T12:39:17.675Z,11460
2016-08-24T12:40:29.272Z,11744
2016-08-24T12:41:41.557Z,11864
2016-08-24T12:42:53.167Z,11464
2016-08-24T12:44:04.064Z,10960
2016-08-24T12:45:14.940Z,10344
2016-08-24T12:46:25.824Z,9716
2016-08-24T12:47:38.134Z,6760
2016-08-24T12:48:50.412Z,4016
2016-08-24T12:50:01.295Z,3632
2016-08-24T12:51:12.880Z,3488
2016-08-24T12:52:25.180Z,3440
2016-08-24T12:53:36.758Z,3604
2016-08-24T12:54:49.050Z,6852
2016-08-24T12:56:00.634Z,4492
2016-08-24T12:57:12.929Z,8956
2016-08-24T12:58:25.221Z,9160
2016-08-24T12:59:36.794Z,9208
2016-08-24T13:00:46.968Z,9032
2016-08-24T13:01:58.534Z,8980
2016-08-24T13:03:10.805Z,8808
2016-08-24T13:04:22.393Z,8792
2016-08-24T13:05:33.309Z,8932
2016-08-24T13:06:44.859Z,8504
2016-08-24T13:07:57.140Z,4636
2016-08-24T13:09:08.023Z,8280
2016-08-24T13:10:19.589Z,8512
2016-08-24T13:11:30.514Z,8656
2016-08-24T13:12:42.818Z,8604
2016-08-24T13:13:53.712Z,8476
2016-08-24T13:15:04.593Z,8504
2016-08-24T13:16:16.166Z,8548
2016-08-24T13:17:27.071Z,8476
2016-08-24T13:18:37.952Z,8856
2016-08-24T13:19:48.136Z,8668
2016-08-24T13:21:00.446Z,9068
2016-08-24T13:22:12.019Z,4084
2016-08-24T13:23:24.318Z,4092
2016-08-24T13:24:36.591Z,5820
2016-08-24T13:25:48.169Z,8980
2016-08-24T13:26:59.801Z,9876
2016-08-24T13:28:11.396Z,9792
2016-08-24T13:29:22.289Z,9452
2016-08-24T13:30:34.585Z,4500
2016-08-24T13:31:46.884Z,3984
2016-08-24T13:32:58.449Z,3836
2016-08-24T13:34:10.043Z,8608
2016-08-24T13:35:21.626Z,8484
2016-08-24T13:36:31.802Z,8528
2016-08-24T13:37:44.087Z,6472
2016-08-24T13:38:56.361Z,8840
2016-08-24T13:40:08.659Z,8716
2016-08-24T13:41:20.974Z,8556
2016-08-24T13:42:33.261Z,8552
2016-08-24T13:43:44.856Z,8756
2016-08-24T13:44:57.150Z,8564
2016-08-24T13:46:08.031Z,8332
2016-08-24T13:47:20.361Z,8224
2016-08-24T13:48:31.955Z,8056
2016-08-24T13:49:44.264Z,5656
2016-08-24T13:50:56.546Z,3220
2016-08-24T13:52:08.280Z,3160
2016-08-24T13:53:19.164Z,3160
2016-08-24T13:54:30.737Z,3156
2016-08-24T13:55:42.310Z,3236
2016-08-24T13:56:54.608Z,3312
2016-08-24T13:58:06.914Z,8004
2016-08-24T13:59:18.508Z,8084
2016-08-24T14:00:31.035Z,8224
2016-08-24T14:01:43.321Z,8296
2016-08-24T14:02:54.909Z,8212
2016-08-24T14:04:06.526Z,8128
2016-08-24T14:05:17.390Z,7876
2016-08-24T14:06:28.997Z,7792
2016-08-24T14:07:40.607Z,7764
2016-08-24T14:08:51.459Z,5884
2016-08-24T14:10:03.757Z,5848
2016-08-24T14:11:15.329Z,4228
2016-08-24T14:12:27.616Z,7260
2016-08-24T14:13:38.489Z,7204
2016-08-24T14:14:50.805Z,7152
2016-08-24T14:16:02.384Z,7112
2016-08-24T14:17:13.976Z,7156
2016-08-24T14:18:26.274Z,7124
2016-08-24T14:19:38.596Z,7076
2016-08-24T14:20:50.185Z,7092
2016-08-24T14:22:01.791Z,7012
2016-08-24T14:23:13.393Z,7016
2016-08-24T14:24:24.963Z,6960
2016-08-24T14:25:36.556Z,6948
2016-08-24T14:26:48.133Z,6968
2016-08-24T14:28:00.443Z,6912
2016-08-24T14:29:12.738Z,6960
2016-08-24T14:30:25.029Z,6896
2016-08-24T14:31:37.306Z,6972
2016-08-24T14:32:49.579Z,6932
2016-08-24T14:34:01.873Z,6864
2016-08-24T14:35:14.180Z,6668
2016-08-24T14:36:26.478Z,6516
2016-08-24T14:37:38.767Z,6452
2016-08-24T14:38:49.641Z,6236
2016-08-24T14:40:01.937Z,6296
2016-08-24T14:41:13.542Z,3724
2016-08-24T14:42:25.844Z,6244
2016-08-24T14:43:38.113Z,6444
2016-08-24T14:44:48.993Z,6476
2016-08-24T14:46:00.575Z,6392
2016-08-24T14:47:12.146Z,6368
2016-08-24T14:48:24.466Z,6264
2016-08-24T14:49:36.051Z,6156
2016-08-24T14:50:46.244Z,6112
2016-08-24T14:51:56.424Z,5996
2016-08-24T14:53:08.723Z,5820
2016-08-24T14:54:20.998Z,5712
2016-08-24T14:55:32.600Z,5780
2016-08-24T14:56:44.902Z,4672
2016-08-24T14:57:56.483Z,3520
2016-08-24T14:59:08.757Z,5720
2016-08-24T15:00:20.369Z,4460
2016-08-24T15:01:31.982Z,5588
2016-08-24T15:02:42.916Z,5584
2016-08-24T15:03:55.202Z,2784
2016-08-24T15:05:06.779Z,4076
2016-08-24T15:06:17.684Z,5536
2016-08-24T15:07:30.000Z,5556
2016-08-24T15:08:42.294Z,5620
2016-08-24T15:09:54.589Z,5584
2016-08-24T15:11:06.206Z,5516
2016-08-24T15:12:18.506Z,5456
2016-08-24T15:13:30.089Z,5416
2016-08-24T15:14:41.679Z,5372
2016-08-24T15:15:52.561Z,5304
2016-08-24T15:17:04.848Z,5308
2016-08-24T15:18:16.424Z,5208
2016-08-24T15:19:26.589Z,5192
2016-08-24T15:20:38.167Z,5224
2016-08-24T15:21:50.460Z,5160
2016-08-24T15:23:02.040Z,5144
2016-08-24T15:24:14.324Z,5112
2016-08-24T15:25:26.643Z,5132
2016-08-24T15:26:38.948Z,5092
2016-08-24T15:27:51.231Z,5008
2016-08-24T15:29:02.163Z,4964
2016-08-24T15:30:14.586Z,4956
2016-08-24T15:31:26.877Z,4964
2016-08-24T15:32:38.485Z,4872
2016-08-24T15:33:50.775Z,4776
2016-08-24T15:35:02.356Z,4752
2016-08-24T15:36:13.940Z,4776
2016-08-24T15:37:26.205Z,4800
2016-08-24T15:38:37.127Z,4772
2016-08-24T15:39:48.006Z,4776
2016-08-24T15:40:59.630Z,4672
2016-08-24T15:42:09.821Z,4616
2016-08-24T15:43:22.101Z,4556
2016-08-24T15:44:32.984Z,4528
2016-08-24T15:45:44.558Z,4484
2016-08-24T15:46:56.123Z,4436
2016-08-24T15:48:08.640Z,4372
2016-08-24T15:49:20.925Z,4316
2016-08-24T15:50:32.508Z,4288
2016-08-24T15:51:44.114Z,4288
2016-08-24T15:52:54.997Z,4252
2016-08-24T15:54:07.278Z,4216
2016-08-24T15:55:18.892Z,4172
2016-08-24T15:56:31.188Z,4164
2016-08-24T15:57:43.465Z,4136
2016-08-24T15:58:54.351Z,4088
2016-08-24T16:00:05.953Z,4036
2016-08-24T16:01:18.242Z,3972
2016-08-24T16:02:30.568Z,3968
2016-08-24T16:03:40.749Z,3968
2016-08-24T16:04:52.356Z,3980
2016-08-24T16:06:04.642Z,3956
2016-08-24T16:07:15.544Z,3940
2016-08-24T16:08:26.431Z,3908
2016-08-24T16:09:37.320Z,3832
2016-08-24T16:10:48.912Z,3836
2016-08-24T16:11:59.793Z,3784
2016-08-24T16:13:11.389Z,3712
2016-08-24T16:14:23.002Z,3616
2016-08-24T16:15:35.299Z,3568
2016-08-24T16:16:47.593Z,3468
2016-08-24T16:17:59.171Z,3360
2016-08-24T16:19:11.462Z,3256
2016-08-24T16:20:23.748Z,3236
2016-08-24T16:21:35.365Z,3204
2016-08-24T16:22:47.664Z,3112
2016-08-24T16:23:58.564Z,3060
2016-08-24T16:25:10.164Z,3032
2016-08-24T16:26:21.743Z,3004
2016-08-24T16:27:33.340Z,2968
2016-08-24T16:28:44.280Z,2920
2016-08-24T16:29:56.579Z,2904
2016-08-24T16:31:07.470Z,2864
2016-08-24T16:32:19.760Z,2828
2016-08-24T16:33:30.626Z,2772
2016-08-24T16:34:42.225Z,2700
2016-08-24T16:35:53.805Z,2640
2016-08-24T16:37:05.369Z,2612
2016-08-24T16:38:17.691Z,2588
2016-08-24T16:39:29.984Z,2548
2016-08-24T16:40:42.244Z,2516
2016-08-24T16:41:53.830Z,2476
2016-08-24T16:43:05.422Z,2428
2016-08-24T16:44:15.603Z,2392
2016-08-24T16:45:26.471Z,2364
2016-08-24T16:46:38.058Z,2296
2016-08-24T16:47:48.936Z,2248
2016-08-24T16:49:01.236Z,2188
2016-08-24T16:50:13.538Z,2140
2016-08-24T16:51:25.831Z,2080
2016-08-24T16:52:38.202Z,2028
2016-08-24T16:53:49.113Z,1992
2016-08-24T16:55:00.707Z,1932
2016-08-24T16:56:12.298Z,1884
2016-08-24T16:57:23.882Z,1828
2016-08-24T16:58:36.301Z,1776
2016-08-24T16:59:47.949Z,1720
2016-08-24T17:00:58.838Z,1676
2016-08-24T17:02:09.048Z,1628
2016-08-24T17:03:19.939Z,1584
2016-08-24T17:04:32.288Z,1540
2016-08-24T17:05:44.604Z,1504
2016-08-24T17:06:55.481Z,1464
2016-08-24T17:08:07.748Z,1424
2016-08-24T17:09:20.023Z,1356
2016-08-24T17:10:32.326Z,1344
2016-08-24T17:11:43.929Z,1296
2016-08-24T17:12:54.814Z,1256
2016-08-24T17:14:05.709Z,1220
2016-08-24T17:15:17.286Z,1180
2016-08-24T17:16:29.568Z,1140
2016-08-24T17:17:40.519Z,1100
2016-08-24T17:18:52.104Z,1060
2016-08-24T17:20:03.689Z,1020
2016-08-24T17:21:15.996Z,980
2016-08-24T17:22:26.869Z,944
2016-08-24T17:23:37.751Z,904
2016-08-24T17:24:47.928Z,868
2016-08-24T17:25:59.511Z,836
2016-08-24T17:27:11.364Z,796
2016-08-24T17:28:23.636Z,760
2016-08-24T17:29:33.911Z,720
2016-08-24T17:30:45.616Z,684
2016-08-24T17:31:57.210Z,648
2016-08-24T17:33:08.794Z,616
2016-08-24T17:34:20.361Z,580
2016-08-24T17:35:31.953Z,548
2016-08-24T17:36:44.449Z,508
2016-08-24T17:37:56.760Z,480
2016-08-24T17:39:08.343Z,444
2016-08-24T17:40:19.230Z,416
2016-08-24T17:41:30.808Z,384
2016-08-24T17:42:43.437Z,356
2016-08-24T17:43:55.787Z,328
2016-08-24T17:45:08.070Z,300
2016-08-24T17:46:19.648Z,276
2016-08-24T17:47:31.268Z,248
2016-08-24T17:48:43.034Z,228
2016-08-24T17:49:54.643Z,208
2016-08-24T17:51:06.947Z,184
2016-08-24T17:52:18.786Z,168
2016-08-24T17:53:31.094Z,148
2016-08-24T17:54:43.998Z,132
2016-08-24T17:55:56.394Z,116
2016-08-24T17:57:07.977Z,104
2016-08-24T17:58:20.259Z,88
2016-08-24T17:59:31.835Z,80
2016-08-24T18:00:44.192Z,68
2016-08-24T18:01:55.775Z,56
2016-08-24T18:03:08.051Z,48
2016-08-24T18:04:20.312Z,40
2016-08-24T18:05:31.936Z,32
2016-08-24T18:06:44.273Z,28
2016-08-24T18:07:55.180Z,24
2016-08-24T18:09:06.789Z,20
2016-08-24T18:10:17.675Z,16
2016-08-24T18:11:29.997Z,12
2016-08-24T18:12:42.281Z,12
2016-08-24T18:13:53.175Z,12
2016-08-24T18:15:05.462Z,8
2016-08-24T18:16:17.776Z,4
2016-08-24T18:17:30.104Z,4
2016-08-24T18:18:41.688Z,4
2016-08-24T18:19:53.262Z,4
2016-08-24T18:21:05.806Z,0
2016-08-24T18:22:17.404Z,4
2016-08-24T18:23:27.569Z,0
2016-08-24T18:24:38.436Z,0
2016-08-24T18:25:50.713Z,4
2016-08-24T18:27:03.003Z,4
2016-08-24T18:28:15.295Z,4
2016-08-24T18:29:26.929Z,0
2016-08-24T18:30:38.521Z,0
2016-08-24T18:31:49.413Z,0
2016-08-24T18:33:00.969Z,0
2016-08-24T18:34:11.851Z,0
2016-08-24T18:35:24.140Z,0
2016-08-24T18:36:35.749Z,0
2016-08-24T18:37:47.341Z,0
2016-08-24T18:38:59.644Z,0
2016-08-24T18:40:11.928Z,0
2016-08-24T18:41:24.235Z,0
2016-08-24T18:42:35.875Z,0
2016-08-24T18:43:48.213Z,0
2016-08-24T18:45:00.036Z,0
2016-08-24T18:46:12.345Z,0
2016-08-24T18:47:24.642Z,0
2016-08-24T18:48:36.231Z,0
2016-08-24T18:49:48.589Z,0
2016-08-24T18:51:00.186Z,0
2016-08-24T18:52:11.073Z,0
2016-08-24T18:53:22.654Z,0
2016-08-24T18:54:33.535Z,0
2016-08-24T18:55:45.313Z,0
2016-08-24T18:56:57.015Z,0
2016-08-24T18:58:09.346Z,0
2016-08-24T18:59:20.233Z,0
2016-08-24T19:00:31.845Z,0
2016-08-24T19:01:43.748Z,0
2016-08-24T19:02:54.903Z,0
2016-08-24T19:04:05.885Z,0
2016-08-24T19:05:19.528Z,0
2016-08-24T19:06:35.334Z,0
2016-08-24T19:07:47.845Z,0
2016-08-24T19:08:59.579Z,0
2016-08-24T19:10:11.203Z,0
2016-08-24T19:11:22.801Z,0
2016-08-24T19:12:32.990Z,0
2016-08-24T19:13:45.333Z,0
2016-08-24T19:14:57.055Z,0
2016-08-24T19:16:08.644Z,0
2016-08-24T19:17:20.343Z,0
2016-08-24T19:18:31.970Z,0
2016-08-24T19:19:44.280Z,0
2016-08-24T19:20:55.895Z,0
2016-08-24T19:22:08.225Z,0
2016-08-24T19:23:19.837Z,0
2016-08-24T19:24:32.181Z,0
2016-08-24T19:25:43.928Z,0
2016-08-24T19:26:55.616Z,0
2016-08-24T19:28:08.312Z,0
2016-08-24T19:29:20.661Z,0
2016-08-24T19:30:33.259Z,0
2016-08-24T19:31:44.269Z,0
2016-08-24T19:32:56.806Z,0
2016-08-24T19:34:09.187Z,0
2016-08-24T19:35:20.076Z,0
2016-08-24T19:36:31.026Z,0
2016-08-24T19:37:43.516Z,0
2016-08-24T19:38:56.184Z,0
2016-08-24T19:40:08.505Z,0
2016-08-24T19:41:20.106Z,0
2016-08-24T19:42:32.565Z,0
2016-08-24T19:43:44.294Z,0
2016-08-24T19:44:56.105Z,0
2016-08-24T19:46:07.774Z,0
2016-08-24T19:47:19.479Z,0
2016-08-24T19:48:29.805Z,0
2016-08-24T19:49:40.949Z,0
2016-08-24T19:50:50.728Z,0
2016-08-24T19:52:02.470Z,0
2016-08-24T19:53:14.876Z,0
2016-08-24T19:54:27.275Z,0
2016-08-24T19:55:39.660Z,0
2016-08-24T19:56:50.685Z,0
2016-08-24T19:58:01.731Z,0
2016-08-24T19:59:14.057Z,0
2016-08-24T20:00:25.658Z,0
2016-08-24T20:01:37.269Z,0
2016-08-24T20:02:48.157Z,0
2016-08-24T20:03:59.728Z,0
2016-08-24T20:05:11.347Z,0
2016-08-24T20:06:22.956Z,0
2016-08-24T20:07:34.619Z,0
2016-08-24T20:08:46.538Z,0
2016-08-24T20:09:59.170Z,0
2016-08-24T20:11:11.197Z,0
2016-08-24T20:12:23.170Z,0
2016-08-24T20:13:35.987Z,0
2016-08-24T20:14:48.965Z,0
2016-08-24T20:16:01.534Z,0
2016-08-24T20:17:13.471Z,0
2016-08-24T20:18:26.248Z,0
2016-08-24T20:19:37.380Z,0
2016-08-24T20:20:49.859Z,0
2016-08-24T20:22:02.529Z,0
2016-08-24T20:23:14.904Z,0
2016-08-24T20:24:26.503Z,0
2016-08-24T20:25:38.942Z,0
2016-08-24T20:26:50.553Z,0
2016-08-24T20:28:02.299Z,0
2016-08-24T20:29:13.266Z,0
2016-08-24T20:30:24.898Z,0
2016-08-24T20:31:37.211Z,0
2016-08-24T20:32:48.899Z,0
2016-08-24T20:34:01.283Z,0
2016-08-24T20:35:12.197Z,0
2016-08-24T20:36:24.501Z,0
2016-08-24T20:37:36.836Z,0
2016-08-24T20:38:49.175Z,0
2016-08-24T20:40:00.751Z,0
2016-08-24T20:41:12.345Z,0
2016-08-24T20:42:24.657Z,0
2016-08-24T20:43:36.993Z,0
2016-08-24T20:44:47.862Z,0
2016-08-24T20:46:00.176Z,0
2016-08-24T20:47:11.775Z,0
2016-08-24T20:48:23.355Z,0
2016-08-24T20:49:35.639Z,0
2016-08-24T20:50:46.533Z,0
2016-08-24T20:51:58.861Z,0
2016-08-24T20:53:10.440Z,0
2016-08-24T20:54:22.047Z,0
2016-08-24T20:55:34.329Z,0
2016-08-24T20:56:46.632Z,0
2016-08-24T20:57:58.205Z,0
2016-08-24T20:59:10.505Z,0
2016-08-24T21:00:22.798Z,0
2016-08-24T21:01:34.377Z,0
2016-08-24T21:02:46.668Z,0
2016-08-24T21:03:57.541Z,0
2016-08-24T21:05:10.019Z,0
2016-08-24T21:06:21.597Z,0
2016-08-24T21:07:33.187Z,0
2016-08-24T21:08:44.204Z,0
2016-08-24T21:09:56.756Z,0
2016-08-24T21:11:08.508Z,0
2016-08-24T21:12:20.834Z,0
2016-08-24T21:13:33.186Z,0
2016-08-24T21:14:44.771Z,0
2016-08-24T21:15:57.181Z,0
2016-08-24T21:17:09.487Z,0
2016-08-24T21:18:20.372Z,0
2016-08-24T21:19:31.941Z,0
2016-08-24T21:20:44.257Z,0
2016-08-24T21:21:56.554Z,0
2016-08-24T21:23:08.129Z,0
2016-08-24T21:24:19.702Z,0
2016-08-24T21:25:31.302Z,0
2016-08-24T21:26:43.589Z,0
2016-08-24T21:27:55.865Z,0
2016-08-24T21:29:08.374Z,0
2016-08-24T21:30:19.960Z,0
2016-08-24T21:31:31.571Z,0
2016-08-24T21:32:43.141Z,0
2016-08-24T21:33:55.426Z,0
2016-08-24T21:35:06.313Z,0
2016-08-24T21:36:17.202Z,0
2016-08-24T21:37:29.472Z,0
2016-08-24T21:38:41.041Z,0
2016-08-24T21:39:52.622Z,0
2016-08-24T21:41:04.194Z,0
2016-08-24T21:42:16.474Z,0
2016-08-24T21:43:28.050Z,0
2016-08-24T21:44:40.308Z,0
2016-08-24T21:45:51.879Z,0
2016-08-24T21:47:04.137Z,0
2016-08-24T21:48:15.711Z,0
2016-08-24T21:49:27.286Z,0
2016-08-24T21:50:39.568Z,0
2016-08-24T21:51:51.187Z,0
2016-08-24T21:53:02.779Z,0
2016-08-24T21:54:14.347Z,0
2016-08-24T21:55:25.212Z,0
2016-08-24T21:56:37.491Z,0
2016-08-24T21:57:49.081Z,0
2016-08-24T21:59:00.662Z,0
2016-08-24T22:00:12.954Z,0
2016-08-24T22:01:25.271Z,0
2016-08-24T22:02:37.559Z,0
2016-08-24T22:03:49.829Z,0
2016-08-24T22:05:00.706Z,0
2016-08-24T22:06:12.975Z,0
2016-08-24T22:07:25.269Z,0
2016-08-24T22:08:36.137Z,0
2016-08-24T22:09:48.400Z,0
2016-08-24T22:11:00.684Z,0
2016-08-24T22:12:11.558Z,0
2016-08-24T22:13:22.440Z,0
2016-08-24T22:14:34.723Z,0
2016-08-24T22:15:47.005Z,0
2016-08-24T22:16:58.594Z,0
2016-08-24T22:18:09.462Z,0
2016-08-24T22:19:21.057Z,0
2016-08-24T22:20:32.676Z,0
2016-08-24T22:21:44.249Z,0
2016-08-24T22:22:56.544Z,0
2016-08-24T22:24:08.123Z,0
2016-08-24T22:25:20.404Z,0
2016-08-24T22:26:32.707Z,0
2016-08-24T22:27:44.956Z,0
2016-08-24T22:28:56.540Z,0
2016-08-24T22:30:08.128Z,0
2016-08-24T22:31:20.436Z,0
2016-08-24T22:32:32.778Z,0
2016-08-24T22:33:44.349Z,0
2016-08-24T22:34:56.629Z,0
2016-08-24T22:36:08.899Z,0
2016-08-24T22:37:20.482Z,0
2016-08-24T22:38:32.773Z,0
2016-08-24T22:39:45.072Z,0
2016-08-24T22:40:57.353Z,0
2016-08-24T22:42:09.634Z,0
2016-08-24T22:43:21.214Z,0
2016-08-24T22:44:32.807Z,0
2016-08-24T22:45:44.381Z,0
2016-08-24T22:46:56.647Z,0
2016-08-24T22:48:08.928Z,0
2016-08-24T22:49:21.209Z,0
2016-08-24T22:50:33.478Z,0
2016-08-24T22:51:45.053Z,0
2016-08-24T22:52:57.330Z,0
2016-08-24T22:54:09.616Z,0
2016-08-24T22:55:21.186Z,0
2016-08-24T22:56:32.041Z,0
2016-08-24T22:57:43.634Z,0
2016-08-24T22:58:55.917Z,0
2016-08-24T23:00:07.491Z,0
2016-08-24T23:01:19.065Z,0
2016-08-24T23:02:30.881Z,0
2016-08-24T23:03:43.144Z,0
2016-08-24T23:04:54.248Z,0
2016-08-24T23:06:06.520Z,0
2016-08-24T23:07:18.102Z,0
2016-08-24T23:08:30.391Z,0
2016-08-24T23:09:41.973Z,0
2016-08-24T23:10:53.539Z,0
2016-08-24T23:12:05.153Z,0
2016-08-24T23:13:17.443Z,0
2016-08-24T23:14:29.019Z,0
2016-08-24T23:15:40.604Z,0
2016-08-24T23:16:52.887Z,0
2016-08-24T23:18:04.462Z,0
2016-08-24T23:19:16.768Z,0
2016-08-24T23:20:28.314Z,0
2016-08-24T23:21:39.887Z,0
2016-08-24T23:22:50.753Z,0
2016-08-24T23:24:01.616Z,0
2016-08-24T23:25:13.189Z,0
2016-08-24T23:26:24.047Z,0
2016-08-24T23:27:35.638Z,0
2016-08-24T23:28:47.211Z,0
2016-08-24T23:29:58.082Z,0
2016-08-24T23:31:10.360Z,0
2016-08-24T23:32:22.635Z,0
2016-08-24T23:33:34.208Z,0
2016-08-24T23:34:46.509Z,0
2016-08-24T23:35:58.792Z,0
2016-08-24T23:37:11.079Z,0
2016-08-24T23:38:21.958Z,0
2016-08-24T23:39:33.061Z,0
2016-08-24T23:40:45.349Z,0
2016-08-24T23:41:57.616Z,0
2016-08-24T23:43:07.784Z,0
2016-08-24T23:44:19.364Z,0
2016-08-24T23:45:31.652Z,0
2016-08-24T23:46:43.917Z,0
2016-08-24T23:47:54.798Z,0
2016-08-24T23:49:06.371Z,0
2016-08-24T23:50:18.205Z,0
2016-08-24T23:51:29.774Z,0
2016-08-24T23:52:41.332Z,0
2016-08-24T23:53:53.627Z,0
2016-08-24T23:55:05.214Z,0
2016-08-24T23:56:17.502Z,0
2016-08-24T23:57:29.062Z,0
2016-08-24T23:58:40.624Z,0
2016-08-24T23:59:52.914Z,0
